Time;durP1;ratioP1;P1;durP2;ratioP2;P2;SDS_P1;SDS_P2;PMS_P1;PMS_P2;Temp;Humidity;BMP_temperature;BMP_pressure;BME280_temperature;BME280_humidity;BME280_pressure;Samples;Min_cycle;Max_cycle;Signal;HPM_P1;HPM_P2
2023/09/01 00:00:24;;;;;;;2.10;1.63;;;23.80;56.00;;;;;;5034112;28;20175;-68
2023/09/01 00:02:51;;;;;;;2.33;1.80;;;23.70;55.90;;;;;;5033941;28;20218;-68
2023/09/01 00:05:16;;;;;;;3.90;1.70;;;23.70;55.90;;;;;;5033982;28;20457;-69
2023/09/01 00:07:42;;;;;;;1.93;1.60;;;23.70;55.90;;;;;;5033815;28;20894;-69
2023/09/01 00:10:08;;;;;;;2.47;1.77;;;23.70;55.90;;;;;;5034105;28;20589;-69
2023/09/01 00:12:33;;;;;;;2.43;2.00;;;23.70;55.90;;;;;;5033927;28;20210;-68
2023/09/01 00:14:59;;;;;;;3.43;2.07;;;23.70;55.90;;;;;;5032451;28;20179;-69
2023/09/01 00:17:25;;;;;;;4.33;1.70;;;23.80;55.90;;;;;;5032392;28;20178;-69
2023/09/01 00:19:50;;;;;;;4.70;1.80;;;23.70;55.80;;;;;;5032375;28;20171;-69
2023/09/01 00:22:16;;;;;;;2.10;1.50;;;23.70;55.80;;;;;;5033551;28;20203;-69
2023/09/01 00:27:17;;;;;;;2.43;1.87;;;23.70;55.70;;;;;;5428074;23;20267;-68
2023/09/01 00:29:42;;;;;;;2.20;2.00;;;23.70;55.80;;;;;;5052848;28;20406;-69
2023/09/01 00:32:08;;;;;;;3.20;1.70;;;23.70;55.70;;;;;;5052795;28;20224;-70
2023/09/01 00:34:33;;;;;;;4.40;1.83;;;23.70;55.70;;;;;;5052777;28;20179;-69
2023/09/01 00:36:59;;;;;;;2.20;1.57;;;23.70;55.70;;;;;;5052656;28;20199;-69
2023/09/01 00:39:25;;;;;;;3.03;1.77;;;23.70;55.70;;;;;;5053267;28;20639;-69
2023/09/01 00:41:50;;;;;;;3.77;1.97;;;23.70;55.60;;;;;;5052625;28;20179;-69
2023/09/01 00:44:16;;;;;;;4.20;2.00;;;23.70;55.60;;;;;;5052598;28;20204;-69
2023/09/01 00:46:46;;;;;;;2.23;1.80;;;23.70;55.60;;;;;;5052422;28;20214;-69
2023/09/01 00:49:12;;;;;;;3.70;2.30;;;23.70;55.60;;;;;;5052759;28;20174;-69
2023/09/01 00:51:38;;;;;;;2.33;1.97;;;23.70;55.60;;;;;;5052434;28;20437;-69
2023/09/01 00:54:04;;;;;;;2.73;1.70;;;23.70;55.60;;;;;;5052624;28;20571;-69
2023/09/01 00:56:30;;;;;;;4.10;2.00;;;23.70;56.20;;;;;;5052235;28;20432;-69
2023/09/01 00:58:56;;;;;;;3.07;2.00;;;23.70;55.60;;;;;;5052299;28;20420;-69
2023/09/01 01:01:22;;;;;;;2.20;1.70;;;23.70;55.60;;;;;;5052234;28;20418;-69
2023/09/01 01:03:51;;;;;;;3.30;1.77;;;23.70;55.60;;;;;;5052484;28;20635;-69
2023/09/01 01:06:20;;;;;;;2.90;2.07;;;23.70;55.60;;;;;;5051995;28;20253;-69
2023/09/01 01:08:49;;;;;;;2.37;1.70;;;23.70;55.60;;;;;;5052383;28;20448;-69
2023/09/01 01:11:45;;;;;;;2.50;1.97;;;23.70;55.60;;;;;;5051993;28;20406;-70
2023/09/01 01:14:25;;;;;;;1.73;1.60;;;23.70;55.60;;;;;;5047930;28;20417;-68
2023/09/01 01:16:52;;;;;;;2.03;1.77;;;23.60;55.60;;;;;;5051910;28;20421;-69
2023/09/01 01:19:41;;;;;;;2.50;1.83;;;23.60;55.60;;;;;;5052155;28;20759;-69
2023/09/01 01:22:07;;;;;;;2.00;1.80;;;23.70;55.70;;;;;;5051824;28;20397;-69
2023/09/01 01:24:34;;;;;;;1.80;1.70;;;23.60;56.20;;;;;;5051493;28;20781;-68
2023/09/01 01:27:00;;;;;;;2.07;1.60;;;23.70;55.70;;;;;;5051500;28;20471;-69
2023/09/01 01:29:26;;;;;;;2.70;2.03;;;23.60;55.70;;;;;;5051352;28;20401;-69
2023/09/01 01:31:53;;;;;;;3.00;1.70;;;23.60;55.70;;;;;;5033714;28;20393;-68
2023/09/01 01:34:34;;;;;;;3.00;2.07;;;23.70;55.80;;;;;;5033670;28;20175;-68
2023/09/01 01:37:11;;;;;;;1.70;1.60;;;23.70;55.80;;;;;;5051794;28;20941;-69
2023/09/01 01:39:38;;;;;;;2.67;1.70;;;23.60;55.70;;;;;;5050580;28;20394;-69
2023/09/01 01:42:10;;;;;;;2.80;1.60;;;23.60;55.80;;;;;;5051188;28;20476;-69
2023/09/01 01:44:39;;;;;;;2.37;1.90;;;23.60;56.30;;;;;;5051379;28;20464;-68
2023/09/01 01:47:07;;;;;;;3.03;1.73;;;23.60;55.80;;;;;;5051277;28;20471;-68
2023/09/01 01:49:34;;;;;;;3.70;2.17;;;23.60;55.80;;;;;;5051294;28;20398;-69
2023/09/01 01:52:01;;;;;;;2.43;1.70;;;23.60;55.80;;;;;;5051553;28;20781;-69
2023/09/01 01:54:29;;;;;;;2.33;1.97;;;23.70;55.90;;;;;;5051254;28;20810;-68
2023/09/01 01:56:54;;;;;;;3.20;2.10;;;23.60;55.80;;;;;;5050689;28;20445;-68
2023/09/01 01:59:20;;;;;;;2.73;1.50;;;23.60;55.80;;;;;;5033259;28;20830;-68
2023/09/01 02:01:46;;;;;;;2.40;2.07;;;23.60;55.80;;;;;;5051185;28;20179;-68
2023/09/01 02:04:11;;;;;;;2.60;1.87;;;23.60;55.80;;;;;;5051127;28;20300;-68
2023/09/01 02:06:37;;;;;;;1.70;1.53;;;23.60;55.90;;;;;;5051243;28;20194;-69
2023/09/01 02:09:03;;;;;;;4.00;1.87;;;23.60;55.90;;;;;;5043057;28;20259;-68
2023/09/01 02:11:29;;;;;;;3.00;1.97;;;23.60;55.90;;;;;;5031136;28;20175;-69
2023/09/01 02:13:56;;;;;;;2.93;1.80;;;23.60;55.90;;;;;;5045863;28;20421;-69
2023/09/01 02:16:24;;;;;;;2.00;1.83;;;23.60;55.90;;;;;;5050880;28;20201;-68
2023/09/01 02:18:49;;;;;;;3.30;2.03;;;23.60;55.90;;;;;;5051004;28;20418;-69
2023/09/01 02:21:19;;;;;;;2.30;2.03;;;23.60;55.90;;;;;;5050947;28;20409;-68
2023/09/01 02:23:46;;;;;;;2.47;1.80;;;23.60;55.90;;;;;;5051167;28;20190;-68
2023/09/01 02:26:22;;;;;;;2.27;1.70;;;23.60;55.90;;;;;;5050798;28;20852;-69
2023/09/01 02:28:49;;;;;;;2.90;1.73;;;23.60;55.90;;;;;;5050601;28;20413;-69
2023/09/01 02:31:15;;;;;;;2.27;1.60;;;23.60;55.90;;;;;;5050824;28;20397;-68
2023/09/01 02:33:41;;;;;;;2.77;1.90;;;23.60;55.90;;;;;;5050791;28;20481;-68
2023/09/01 02:36:28;;;;;;;2.07;1.87;;;23.60;55.90;;;;;;5050730;28;20413;-69
2023/09/01 02:38:55;;;;;;;2.40;2.20;;;23.60;55.90;;;;;;5050675;28;20905;-68
2023/09/01 02:41:21;;;;;;;4.77;1.90;;;23.60;56.00;;;;;;5052593;28;20778;-68
2023/09/01 02:43:47;;;;;;;2.47;1.40;;;23.60;56.00;;;;;;5054624;28;20500;-69
2023/09/01 02:46:13;;;;;;;2.40;1.70;;;23.60;56.00;;;;;;5036978;28;20516;-69
2023/09/01 02:48:39;;;;;;;2.50;1.90;;;23.60;56.00;;;;;;5054750;28;20163;-69
2023/09/01 02:51:05;;;;;;;4.60;2.50;;;23.60;56.00;;;;;;5054926;28;20232;-69
2023/09/01 02:53:35;;;;;;;1.80;1.60;;;23.60;56.00;;;;;;5054661;28;20547;-68
2023/09/01 02:56:02;;;;;;;4.80;1.87;;;23.60;56.00;;;;;;5054487;28;20428;-69
2023/09/01 02:58:28;;;;;;;1.97;1.53;;;23.60;56.00;;;;;;5054625;28;20413;-69
2023/09/01 03:00:54;;;;;;;2.93;1.70;;;23.60;56.00;;;;;;5052492;28;20425;-70
2023/09/01 03:03:20;;;;;;;2.40;1.80;;;23.60;56.50;;;;;;5054533;28;20479;-69
2023/09/01 03:05:50;;;;;;;1.83;1.57;;;23.60;56.00;;;;;;5054641;28;20195;-69
2023/09/01 03:08:20;;;;;;;1.63;1.40;;;23.60;56.00;;;;;;5054376;28;20460;-70
2023/09/01 03:10:46;;;;;;;2.23;1.60;;;23.60;56.00;;;;;;5054640;28;20418;-69
2023/09/01 03:13:12;;;;;;;1.90;1.47;;;23.60;56.00;;;;;;5054318;28;20475;-69
2023/09/01 03:15:39;;;;;;;2.33;2.00;;;23.60;56.00;;;;;;5052762;28;20198;-69
2023/09/01 03:18:06;;;;;;;1.80;1.37;;;23.60;56.00;;;;;;5054254;28;20175;-69
2023/09/01 03:20:32;;;;;;;2.73;2.03;;;23.60;56.00;;;;;;5054423;28;20421;-69
2023/09/01 03:22:57;;;;;;;2.13;1.93;;;23.60;56.00;;;;;;5054311;28;20443;-69
2023/09/01 03:25:24;;;;;;;3.00;1.73;;;23.60;56.00;;;;;;5053998;28;20186;-69
2023/09/01 03:27:49;;;;;;;1.70;1.60;;;23.60;56.10;;;;;;5053924;28;20591;-69
2023/09/01 03:30:15;;;;;;;2.27;1.80;;;23.60;56.00;;;;;;5053706;28;20417;-69
2023/09/01 03:32:41;;;;;;;2.03;1.50;;;23.60;56.30;;;;;;5053997;28;20733;-69
2023/09/01 03:35:07;;;;;;;2.23;1.30;;;23.60;56.00;;;;;;5053869;28;20225;-69
2023/09/01 03:37:33;;;;;;;1.73;1.40;;;23.60;56.10;;;;;;5053802;28;20194;-69
2023/09/01 03:39:59;;;;;;;1.80;1.60;;;23.60;56.10;;;;;;5053878;28;20420;-69
2023/09/01 03:42:25;;;;;;;2.27;1.70;;;23.60;56.10;;;;;;5053761;28;20406;-70
2023/09/01 03:44:51;;;;;;;3.83;1.97;;;23.60;56.10;;;;;;5053716;28;20197;-70
2023/09/01 03:47:18;;;;;;;1.73;1.47;;;23.60;56.10;;;;;;5053250;28;20555;-69
2023/09/01 03:49:43;;;;;;;2.37;1.80;;;23.60;56.60;;;;;;5053648;28;20214;-69
2023/09/01 03:52:09;;;;;;;2.30;2.10;;;23.60;56.10;;;;;;5053250;28;20495;-69
2023/09/01 03:54:34;;;;;;;1.97;1.73;;;23.60;56.10;;;;;;5053536;28;20174;-69
2023/09/01 03:57:00;;;;;;;2.10;1.50;;;23.50;56.00;;;;;;5053395;28;20270;-70
2023/09/01 03:59:25;;;;;;;1.90;1.70;;;23.60;56.10;;;;;;5053472;28;20619;-69
2023/09/01 04:01:51;;;;;;;3.30;1.80;;;23.50;56.00;;;;;;5052932;28;20182;-69
2023/09/01 04:04:18;;;;;;;2.43;1.70;;;23.50;56.60;;;;;;5045912;28;20180;-69
2023/09/01 04:06:44;;;;;;;5.20;1.87;;;23.50;56.00;;;;;;5044850;28;20281;-69
2023/09/01 04:09:10;;;;;;;2.63;2.10;;;23.50;56.00;;;;;;5043901;28;20513;-69
2023/09/01 04:11:36;;;;;;;2.80;1.77;;;23.50;56.00;;;;;;5033320;28;20174;-69
2023/09/01 04:14:02;;;;;;;2.70;1.60;;;23.60;56.10;;;;;;5033365;28;20411;-69
2023/09/01 04:16:28;;;;;;;2.43;2.23;;;23.50;56.00;;;;;;5033168;28;20188;-70
2023/09/01 04:18:56;;;;;;;2.37;1.50;;;23.50;56.20;;;;;;5033273;28;20601;-69
2023/09/01 04:21:22;;;;;;;3.90;1.90;;;23.60;56.10;;;;;;5033483;28;20175;-70
2023/09/01 04:23:48;;;;;;;2.00;1.70;;;23.50;56.10;;;;;;5034219;28;20837;-70
2023/09/01 04:26:14;;;;;;;2.10;1.60;;;23.60;56.10;;;;;;5045911;28;20195;-69
2023/09/01 04:28:40;;;;;;;1.60;1.20;;;23.50;56.00;;;;;;5053170;28;20467;-69
2023/09/01 04:31:24;;;;;;;1.80;1.57;;;23.50;56.00;;;;;;5053123;28;20689;-69
2023/09/01 04:33:50;;;;;;;2.07;1.80;;;23.60;56.10;;;;;;5052868;28;20201;-69
2023/09/01 04:36:15;;;;;;;1.93;1.73;;;23.50;56.10;;;;;;5052656;28;20429;-69
2023/09/01 04:38:41;;;;;;;1.60;1.50;;;23.50;56.10;;;;;;5052767;28;20185;-69
2023/09/01 04:41:06;;;;;;;2.23;1.50;;;23.50;56.10;;;;;;5052318;28;20210;-69
2023/09/01 04:43:32;;;;;;;2.20;1.60;;;23.50;56.10;;;;;;5052703;28;20185;-69
2023/09/01 04:45:58;;;;;;;2.37;1.63;;;23.50;56.10;;;;;;5034665;28;20211;-69
2023/09/01 04:48:25;;;;;;;2.73;1.83;;;23.50;56.10;;;;;;5052458;28;20452;-69
2023/09/01 04:50:51;;;;;;;2.33;1.70;;;23.50;56.10;;;;;;5052474;28;20453;-69
2023/09/01 04:53:17;;;;;;;2.00;1.80;;;23.50;56.10;;;;;;5034839;28;20861;-70
2023/09/01 04:55:43;;;;;;;2.10;1.40;;;23.50;56.10;;;;;;5050501;28;20218;-69
2023/09/01 04:58:09;;;;;;;4.30;1.90;;;23.50;56.10;;;;;;5052350;28;20442;-70
2023/09/01 05:00:35;;;;;;;1.57;1.40;;;23.50;56.10;;;;;;5052346;28;20175;-69
2023/09/01 05:03:01;;;;;;;2.33;1.77;;;23.50;56.10;;;;;;5051775;28;20209;-70
2023/09/01 05:05:27;;;;;;;2.40;1.60;;;23.50;56.10;;;;;;5051955;28;20203;-69
2023/09/01 05:07:52;;;;;;;2.37;1.50;;;23.50;56.10;;;;;;5052126;28;20487;-69
2023/09/01 05:10:18;;;;;;;2.43;1.87;;;23.50;56.10;;;;;;5051903;28;20175;-69
2023/09/01 05:12:43;;;;;;;2.50;1.60;;;23.50;56.10;;;;;;5051865;28;20566;-69
2023/09/01 05:15:09;;;;;;;2.10;1.63;;;23.50;56.20;;;;;;5052037;28;20194;-69
2023/09/01 05:17:35;;;;;;;1.80;1.67;;;23.50;56.10;;;;;;5052154;28;20613;-68
2023/09/01 05:20:01;;;;;;;2.43;1.83;;;23.50;56.10;;;;;;5051927;28;20171;-69
2023/09/01 05:22:26;;;;;;;2.67;1.80;;;23.50;56.10;;;;;;5033926;28;20185;-69
2023/09/01 05:24:53;;;;;;;2.00;1.80;;;23.50;56.10;;;;;;5052058;28;20175;-69
2023/09/01 05:27:19;;;;;;;2.13;1.80;;;23.50;56.20;;;;;;5051267;28;20206;-68
2023/09/01 05:29:49;;;;;;;2.20;1.53;;;23.50;56.20;;;;;;5051517;28;20460;-68
2023/09/01 05:32:17;;;;;;;3.33;2.00;;;23.50;56.20;;;;;;5051675;28;20926;-69
2023/09/01 05:34:43;;;;;;;1.73;1.50;;;23.50;56.20;;;;;;5051609;28;20500;-69
2023/09/01 05:37:11;;;;;;;2.40;1.70;;;23.50;56.20;;;;;;5051527;28;20539;-69
2023/09/01 05:39:38;;;;;;;2.43;1.90;;;23.50;56.20;;;;;;5033772;28;20705;-69
2023/09/01 05:42:03;;;;;;;1.80;1.30;;;23.50;56.20;;;;;;5051268;28;20478;-69
2023/09/01 05:44:30;;;;;;;1.80;1.47;;;23.50;56.20;;;;;;5050753;28;20425;-69
2023/09/01 05:46:55;;;;;;;2.20;1.67;;;23.50;56.20;;;;;;5050898;28;20195;-69
2023/09/01 05:49:23;;;;;;;2.20;1.70;;;23.50;56.20;;;;;;5051375;28;20405;-70
2023/09/01 05:51:49;;;;;;;2.00;1.60;;;23.50;56.20;;;;;;5051322;28;20167;-70
2023/09/01 05:54:17;;;;;;;2.10;1.83;;;23.50;56.20;;;;;;5051287;28;20428;-69
2023/09/01 05:56:43;;;;;;;2.43;1.50;;;23.50;56.20;;;;;;5050740;28;21366;-70
2023/09/01 05:59:08;;;;;;;2.57;1.50;;;23.50;56.20;;;;;;5051416;28;20412;-69
2023/09/01 06:01:36;;;;;;;2.13;1.70;;;23.50;56.20;;;;;;5051200;28;20175;-69
2023/09/01 06:04:05;;;;;;;1.70;1.50;;;23.50;56.20;;;;;;5051160;28;20175;-69
2023/09/01 06:06:31;;;;;;;2.40;1.60;;;23.50;56.20;;;;;;5050942;28;20429;-69
2023/09/01 06:09:00;;;;;;;2.50;1.70;;;23.50;56.30;;;;;;5043560;28;20937;-69
2023/09/01 06:11:26;;;;;;;2.27;2.00;;;23.50;56.30;;;;;;5031393;28;20480;-69
2023/09/01 06:13:52;;;;;;;2.67;1.80;;;23.50;56.30;;;;;;5031023;28;20422;-70
2023/09/01 06:16:17;;;;;;;2.57;2.17;;;23.50;56.40;;;;;;5030900;28;21015;-69
2023/09/01 06:18:43;;;;;;;3.10;1.80;;;23.50;56.30;;;;;;5031620;28;20172;-70
2023/09/01 06:21:10;;;;;;;2.33;2.00;;;23.50;56.40;;;;;;5031049;28;20171;-69
2023/09/01 06:23:40;;;;;;;2.70;1.90;;;23.50;56.40;;;;;;5031693;28;20168;-66
2023/09/01 06:26:06;;;;;;;2.00;1.50;;;23.50;56.40;;;;;;5032738;28;20969;-69
2023/09/01 06:28:33;;;;;;;2.03;1.63;;;23.50;56.50;;;;;;5050653;28;20471;-69
2023/09/01 06:30:59;;;;;;;1.97;1.60;;;23.50;56.40;;;;;;5050606;28;20246;-68
2023/09/01 06:33:24;;;;;;;2.97;2.43;;;23.50;56.50;;;;;;5050812;28;20406;-69
2023/09/01 06:35:50;;;;;;;2.03;1.60;;;23.50;56.50;;;;;;5050796;28;20190;-69
2023/09/01 06:38:15;;;;;;;3.50;1.90;;;23.50;56.50;;;;;;5050762;28;20256;-70
2023/09/01 06:40:41;;;;;;;2.53;1.70;;;23.50;56.50;;;;;;5049467;28;20182;-69
2023/09/01 06:43:06;;;;;;;1.90;1.50;;;23.40;56.40;;;;;;5050472;28;20266;-70
2023/09/01 06:45:32;;;;;;;2.17;1.60;;;23.40;56.40;;;;;;5050677;28;20599;-69
2023/09/01 06:47:58;;;;;;;3.77;2.20;;;23.50;56.60;;;;;;5050520;28;20202;-69
2023/09/01 06:50:24;;;;;;;2.37;1.67;;;23.50;56.50;;;;;;5049681;28;20405;-70
2023/09/01 06:52:51;;;;;;;2.27;1.60;;;23.50;56.50;;;;;;5050686;28;20175;-68
2023/09/01 06:55:17;;;;;;;1.80;1.60;;;23.50;56.50;;;;;;5032606;28;20224;-66
2023/09/01 06:57:43;;;;;;;2.93;2.10;;;23.40;56.40;;;;;;5050864;28;20425;-68
2023/09/01 07:00:09;;;;;;;2.40;2.07;;;23.50;56.50;;;;;;5050330;28;20536;-69
2023/09/01 07:02:35;;;;;;;5.30;1.80;;;23.50;56.50;;;;;;5049097;28;20461;-69
2023/09/01 07:05:02;;;;;;;2.73;1.90;;;23.50;56.40;;;;;;5050450;28;20463;-70
2023/09/01 07:07:28;;;;;;;1.90;1.80;;;23.50;56.40;;;;;;5050324;28;20195;-70
2023/09/01 07:09:53;;;;;;;1.60;1.50;;;23.50;56.40;;;;;;5050469;28;20405;-69
2023/09/01 07:12:19;;;;;;;1.97;1.60;;;23.50;56.40;;;;;;5050747;28;20160;-69
2023/09/01 07:14:44;;;;;;;2.17;1.53;;;23.50;56.40;;;;;;5050387;28;20171;-69
2023/09/01 07:17:13;;;;;;;2.17;1.80;;;23.50;56.40;;;;;;5039997;28;20606;-69
2023/09/01 07:19:39;;;;;;;2.73;1.60;;;23.50;56.40;;;;;;5030710;28;20246;-68
2023/09/01 07:22:07;;;;;;;1.73;1.53;;;23.50;56.40;;;;;;5030509;28;20418;-70
2023/09/01 07:24:33;;;;;;;3.20;1.97;;;23.60;56.40;;;;;;5030581;28;20183;-71
2023/09/01 07:26:58;;;;;;;3.33;1.70;;;23.60;56.40;;;;;;5030899;28;20478;-69
2023/09/01 07:29:24;;;;;;;1.73;1.50;;;23.60;56.40;;;;;;5033084;28;20182;-70
2023/09/01 07:31:50;;;;;;;1.73;1.50;;;23.60;56.50;;;;;;5032808;28;20168;-69
2023/09/01 07:34:15;;;;;;;1.90;1.47;;;23.60;56.40;;;;;;5042250;28;20183;-69
2023/09/01 07:36:41;;;;;;;2.77;1.50;;;23.60;56.40;;;;;;5051973;28;20198;-69
2023/09/01 07:39:07;;;;;;;1.60;1.50;;;23.60;56.40;;;;;;5051719;28;20635;-69
2023/09/01 07:41:33;;;;;;;2.13;1.77;;;23.60;56.40;;;;;;5052570;28;20179;-70
2023/09/01 07:43:59;;;;;;;3.57;1.77;;;23.60;56.40;;;;;;5034542;28;20262;-68
2023/09/01 07:46:25;;;;;;;2.23;1.90;;;23.70;56.40;;;;;;5051686;28;20516;-70
2023/09/01 07:48:50;;;;;;;1.90;1.40;;;23.70;56.40;;;;;;5052096;28;20185;-68
2023/09/01 07:51:16;;;;;;;5.37;1.53;;;23.70;56.40;;;;;;5052001;28;20172;-70
2023/09/01 07:53:41;;;;;;;1.83;1.40;;;23.70;56.40;;;;;;5052387;28;20279;-68
2023/09/01 07:56:10;;;;;;;2.33;1.83;;;23.70;56.40;;;;;;5052312;28;20195;-69
2023/09/01 07:58:35;;;;;;;2.03;1.83;;;23.70;56.40;;;;;;5052386;28;20756;-69
2023/09/01 08:01:01;;;;;;;2.20;1.60;;;23.70;56.30;;;;;;5051590;28;20453;-68
2023/09/01 08:03:27;;;;;;;1.53;1.40;;;23.70;56.30;;;;;;5051802;28;20175;-68
2023/09/01 08:05:52;;;;;;;1.90;1.70;;;23.70;56.30;;;;;;5051841;28;20190;-69
2023/09/01 08:08:18;;;;;;;2.53;1.50;;;23.80;56.40;;;;;;5051336;28;20219;-70
2023/09/01 08:10:43;;;;;;;2.00;1.43;;;23.80;56.40;;;;;;5051507;28;20228;-69
2023/09/01 08:13:09;;;;;;;2.97;1.57;;;23.80;56.40;;;;;;5051558;28;20244;-69
2023/09/01 08:15:35;;;;;;;2.73;1.57;;;23.80;56.40;;;;;;5051619;28;20186;-69
2023/09/01 08:18:00;;;;;;;2.27;1.53;;;23.80;56.40;;;;;;5033202;28;20538;-69
2023/09/01 08:20:26;;;;;;;2.30;1.80;;;23.80;56.40;;;;;;5051429;28;20305;-67
2023/09/01 08:22:51;;;;;;;2.37;1.70;;;23.80;56.40;;;;;;5017218;28;20225;-68
2023/09/01 08:25:17;;;;;;;1.70;1.00;;;23.80;56.40;;;;;;5051400;28;20700;-68
2023/09/01 08:27:44;;;;;;;2.07;1.73;;;23.80;56.40;;;;;;5005879;28;1322927;-70
2023/09/01 08:30:10;;;;;;;1.60;1.20;;;23.80;56.40;;;;;;5053042;28;20976;-67
2023/09/01 08:32:39;;;;;;;2.40;1.90;;;23.80;56.40;;;;;;5052787;28;20426;-70
2023/09/01 08:35:04;;;;;;;1.50;1.40;;;23.80;56.40;;;;;;5052656;28;20405;-70
2023/09/01 08:37:30;;;;;;;1.60;1.40;;;23.90;56.40;;;;;;5052415;28;20532;-70
2023/09/01 08:39:56;;;;;;;3.47;1.90;;;23.90;56.40;;;;;;5052056;28;20614;-69
2023/09/01 08:42:22;;;;;;;1.70;1.30;;;23.90;56.40;;;;;;5052703;28;20198;-69
2023/09/01 08:44:48;;;;;;;4.00;1.70;;;23.90;56.40;;;;;;5052658;28;20282;-68
2023/09/01 08:47:20;;;;;;;5.27;1.60;;;23.90;56.40;;;;;;5052443;28;21074;-69
2023/09/01 08:49:49;;;;;;;1.63;1.40;;;23.90;56.40;;;;;;5052003;28;20840;-69
2023/09/01 08:52:17;;;;;;;2.57;1.70;;;23.90;56.40;;;;;;5051954;28;20418;-69
2023/09/01 08:54:44;;;;;;;1.83;1.40;;;23.90;56.40;;;;;;5051709;28;20413;-70
2023/09/01 08:57:09;;;;;;;2.07;1.40;;;23.90;56.40;;;;;;5051818;28;20433;-69
2023/09/01 08:59:37;;;;;;;1.80;1.30;;;23.90;56.40;;;;;;5051795;28;20507;-68
2023/09/01 09:02:05;;;;;;;1.33;1.10;;;23.90;56.40;;;;;;5051735;28;20272;-70
2023/09/01 09:04:31;;;;;;;1.70;1.30;;;23.90;56.40;;;;;;5052109;28;20801;-71
2023/09/01 09:07:12;;;;;;;1.40;1.13;;;23.90;56.40;;;;;;5050088;28;20559;-69
2023/09/01 09:09:59;;;;;;;1.93;1.67;;;24.00;56.50;;;;;;5034109;28;20663;-70
2023/09/01 09:12:43;;;;;;;1.73;1.10;;;24.00;56.50;;;;;;5051984;28;20412;-70
2023/09/01 09:15:09;;;;;;;2.03;1.93;;;24.00;56.50;;;;;;5052294;28;20743;-69
2023/09/01 09:17:45;;;;;;;1.57;1.13;;;23.90;56.40;;;;;;5051854;28;20433;-70
2023/09/01 09:20:14;;;;;;;1.77;1.40;;;24.00;56.50;;;;;;5051782;28;20465;-69
2023/09/01 09:22:56;;;;;;;1.30;1.20;;;24.00;56.50;;;;;;5051568;28;20417;-71
2023/09/01 09:25:33;;;;;;;1.60;1.20;;;24.00;56.50;;;;;;5033184;28;20520;-69
2023/09/01 09:28:00;;;;;;;2.37;1.23;;;24.00;56.50;;;;;;5051334;28;20815;-70
2023/09/01 09:30:26;;;;;;;2.43;1.30;;;24.00;56.50;;;;;;5051089;28;20460;-68
2023/09/01 09:33:06;;;;;;;1.70;1.13;;;24.00;56.50;;;;;;5051565;28;20478;-70
2023/09/01 09:35:48;;;;;;;1.53;1.10;;;24.00;56.60;;;;;;5051553;28;20394;-70
2023/09/01 09:38:13;;;;;;;1.70;1.47;;;24.00;56.60;;;;;;5051828;28;20393;-70
2023/09/01 09:40:39;;;;;;;1.83;1.13;;;24.00;56.50;;;;;;5051555;28;20424;-70
2023/09/01 09:43:09;;;;;;;2.93;1.33;;;24.00;56.60;;;;;;5051002;28;20190;-68
2023/09/01 09:45:37;;;;;;;1.67;1.17;;;24.00;56.60;;;;;;5051414;28;20254;-69
2023/09/01 09:48:05;;;;;;;2.70;1.27;;;24.00;56.50;;;;;;5051601;28;20473;-70
2023/09/01 09:50:32;;;;;;;1.73;1.20;;;24.00;56.50;;;;;;5051382;28;20409;-70
2023/09/01 09:53:03;;;;;;;1.67;1.30;;;24.10;56.70;;;;;;5033485;28;20416;-70
2023/09/01 09:55:33;;;;;;;1.07;0.90;;;24.10;56.60;;;;;;5051194;28;20590;-70
2023/09/01 09:58:05;;;;;;;1.23;1.13;;;24.10;56.60;;;;;;5051160;28;20428;-69
2023/09/01 10:00:34;;;;;;;2.17;1.30;;;24.10;56.60;;;;;;5049448;28;20436;-70
2023/09/01 10:03:01;;;;;;;2.00;1.47;;;24.10;56.60;;;;;;5051211;28;20925;-69
2023/09/01 10:05:31;;;;;;;1.90;1.33;;;24.10;56.60;;;;;;5051030;28;20421;-69
2023/09/01 10:07:58;;;;;;;1.70;1.03;;;24.10;56.60;;;;;;5049033;28;20625;-69
2023/09/01 10:10:24;;;;;;;1.20;1.03;;;24.10;56.60;;;;;;5050918;28;20496;-70
2023/09/01 10:12:50;;;;;;;1.20;1.10;;;24.10;56.60;;;;;;5050895;28;20962;-70
2023/09/01 10:15:17;;;;;;;2.10;1.17;;;24.10;56.60;;;;;;5050967;28;20171;-67
2023/09/01 10:17:46;;;;;;;3.00;1.27;;;24.10;56.60;;;;;;5050367;28;20452;-70
2023/09/01 10:20:12;;;;;;;1.97;1.60;;;24.10;56.60;;;;;;5050765;28;20417;-69
2023/09/01 10:22:38;;;;;;;1.20;1.07;;;24.10;56.60;;;;;;5050868;28;20912;-70
2023/09/01 10:25:14;;;;;;;2.73;1.13;;;24.10;56.60;;;;;;5050365;28;20205;-69
2023/09/01 10:28:03;;;;;;;1.37;1.10;;;24.10;56.60;;;;;;5050232;28;20507;-70
2023/09/01 10:30:31;;;;;;;1.20;0.90;;;24.20;56.70;;;;;;5050695;28;20406;-69
2023/09/01 10:33:23;;;;;;;1.50;1.00;;;24.10;56.60;;;;;;5050349;28;20447;-69
2023/09/01 10:35:53;;;;;;;1.73;1.10;;;24.10;56.60;;;;;;5028223;28;20498;-70
2023/09/01 10:38:21;;;;;;;1.73;1.30;;;24.10;56.60;;;;;;5050658;28;20504;-68
2023/09/01 10:40:50;;;;;;;1.97;1.10;;;24.10;56.60;;;;;;5031126;28;20413;-69
2023/09/01 10:43:31;;;;;;;1.20;0.97;;;24.10;56.60;;;;;;5050621;28;20421;-69
2023/09/01 10:46:20;;;;;;;1.40;1.10;;;24.20;56.70;;;;;;5050381;28;20440;-69
2023/09/01 10:48:50;;;;;;;1.43;1.00;;;24.10;56.60;;;;;;5037137;28;20472;-69
2023/09/01 10:51:18;;;;;;;1.50;1.10;;;24.10;56.60;;;;;;5050388;28;20417;-70
2023/09/01 10:53:45;;;;;;;1.57;1.20;;;24.10;56.60;;;;;;5049647;28;20470;-70
2023/09/01 10:56:12;;;;;;;1.30;1.20;;;24.10;56.60;;;;;;5048169;28;20801;-69
2023/09/01 10:58:50;;;;;;;1.40;1.00;;;24.20;57.20;;;;;;5050352;28;20409;-70
2023/09/01 11:01:34;;;;;;;1.07;0.93;;;24.20;56.70;;;;;;5016103;28;20439;-70
2023/09/01 11:04:21;;;;;;;1.23;1.07;;;24.20;56.60;;;;;;5054300;28;20493;-69
2023/09/01 11:07:08;;;;;;;2.47;1.30;;;24.20;56.60;;;;;;5054331;28;20785;-69
2023/09/01 11:09:33;;;;;;;1.20;1.00;;;24.20;56.60;;;;;;5034116;28;20394;-69
2023/09/01 11:12:02;;;;;;;2.43;1.50;;;24.10;56.50;;;;;;5033882;28;20513;-68
2023/09/01 11:14:29;;;;;;;1.93;1.30;;;24.10;56.50;;;;;;5034333;28;20551;-70
2023/09/01 11:16:54;;;;;;;4.27;2.03;;;24.10;56.50;;;;;;5034319;28;20815;-70
2023/09/01 11:19:20;;;;;;;4.77;2.57;;;24.10;56.50;;;;;;5026838;28;20433;-69
2023/09/01 11:21:49;;;;;;;4.87;3.37;;;24.10;56.50;;;;;;5053921;28;20186;-70
2023/09/01 11:24:20;;;;;;;5.67;4.30;;;24.10;57.00;;;;;;5054360;28;20206;-69
2023/09/01 11:26:46;;;;;;;7.07;5.20;;;24.10;56.50;;;;;;5034927;28;20500;-70
2023/09/01 11:29:13;;;;;;;9.00;7.20;;;24.10;56.50;;;;;;5053390;28;20406;-68
2023/09/01 11:31:40;;;;;;;9.27;6.33;;;24.10;56.40;;;;;;5053867;28;20413;-70
2023/09/01 11:34:06;;;;;;;17.40;11.83;;;24.10;56.40;;;;;;5053560;28;20432;-70
2023/09/01 11:36:33;;;;;;;29.43;18.93;;;24.10;56.40;;;;;;5053714;28;20422;-68
2023/09/01 11:38:59;;;;;;;30.80;20.10;;;24.10;56.40;;;;;;5054024;28;20463;-70
2023/09/01 11:41:26;;;;;;;25.93;18.30;;;24.10;56.50;;;;;;5053520;28;20953;-70
2023/09/01 11:43:52;;;;;;;32.37;23.57;;;24.10;56.50;;;;;;5053652;28;20224;-70
2023/09/01 11:46:31;;;;;;;32.10;24.03;;;24.10;56.50;;;;;;5053530;28;20959;-70
2023/09/01 11:48:57;;;;;;;38.60;23.00;;;24.10;56.50;;;;;;5054015;28;20446;-70
2023/09/01 11:51:30;;;;;;;33.83;24.67;;;24.10;56.60;;;;;;5052072;28;20484;-70
2023/09/01 11:53:56;;;;;;;41.43;27.27;;;24.10;56.70;;;;;;5053931;28;20191;-71
2023/09/01 11:56:22;;;;;;;40.67;29.27;;;24.10;56.70;;;;;;5053314;28;20518;-71
2023/09/01 11:58:49;;;;;;;42.63;29.27;;;24.10;56.70;;;;;;5035625;28;20181;-70
2023/09/01 12:01:18;;;;;;;41.10;27.40;;;24.10;56.70;;;;;;5053775;28;20460;-70
2023/09/01 12:03:54;;;;;;;43.00;29.87;;;24.10;56.80;;;;;;5053371;28;20401;-72
2023/09/01 12:06:22;;;;;;;41.73;30.73;;;24.10;56.80;;;;;;5051705;28;20456;-71
2023/09/01 12:08:48;;;;;;;41.70;29.23;;;24.10;56.80;;;;;;5053432;28;20452;-70
2023/09/01 12:11:15;;;;;;;40.60;31.90;;;24.10;56.80;;;;;;5053177;28;20414;-70
2023/09/01 12:13:44;;;;;;;42.20;29.40;;;24.00;56.80;;;;;;5053167;28;20413;-70
2023/09/01 12:16:24;;;;;;;48.53;33.23;;;24.10;56.90;;;;;;5052944;28;20889;-71
2023/09/01 12:18:52;;;;;;;42.17;30.40;;;24.10;56.90;;;;;;5053199;28;20442;-71
2023/09/01 12:21:18;;;;;;;42.33;29.87;;;24.00;56.90;;;;;;5053008;28;20504;-70
2023/09/01 12:23:46;;;;;;;42.33;31.40;;;24.00;56.90;;;;;;5052750;28;20543;-70
2023/09/01 12:26:15;;;;;;;44.17;31.93;;;24.00;56.90;;;;;;5053146;28;20321;-71
2023/09/01 12:28:42;;;;;;;40.90;31.17;;;24.00;56.90;;;;;;5035323;28;20506;-71
2023/09/01 12:31:09;;;;;;;46.37;30.63;;;24.00;57.40;;;;;;5052828;28;20536;-69
2023/09/01 12:33:35;;;;;;;41.00;31.30;;;24.00;56.90;;;;;;5052746;28;20417;-70
2023/09/01 12:36:02;;;;;;;39.80;30.03;;;24.00;56.90;;;;;;5052689;28;20440;-71
2023/09/01 12:38:28;;;;;;;43.50;30.60;;;24.00;56.90;;;;;;5052771;28;20760;-70
2023/09/01 12:40:53;;;;;;;43.20;31.23;;;24.00;57.00;;;;;;5052689;28;20424;-70
2023/09/01 12:43:19;;;;;;;41.80;29.93;;;24.00;56.90;;;;;;5052701;28;20833;-71
2023/09/01 12:45:45;;;;;;;39.70;30.67;;;24.00;56.90;;;;;;5052737;28;20199;-71
2023/09/01 12:48:12;;;;;;;41.50;31.50;;;24.00;56.90;;;;;;5052710;28;20282;-70
2023/09/01 12:50:37;;;;;;;39.83;30.83;;;24.00;56.90;;;;;;5052639;28;20163;-70